Time;durP1;ratioP1;P1;durP2;ratioP2;P2;SDS_P1;SDS_P2;PMS_P1;PMS_P2;Temp;Humidity;BMP_temperature;BMP_pressure;BME280_temperature;BME280_humidity;BME280_pressure;Samples;Min_cycle;Max_cycle;Signal;HPM_P1;HPM_P2
2022/05/01 00:01:30;;;;;;;30.58;17.58;;;7.60;95.30;;;;;;4905005;29;20048;-69
2022/05/01 00:03:55;;;;;;;30.25;17.63;;;7.60;95.30;;;;;;4904079;29;20054;-68
2022/05/01 00:06:21;;;;;;;27.00;16.13;;;7.60;95.30;;;;;;4895732;29;20037;-70
2022/05/01 00:08:47;;;;;;;25.88;15.18;;;7.60;95.30;;;;;;4899818;29;20115;-69
2022/05/01 00:11:13;;;;;;;23.70;14.77;;;7.70;95.30;;;;;;4905647;29;20056;-69
2022/05/01 00:13:43;;;;;;;27.48;17.48;;;7.60;95.30;;;;;;4920172;29;20407;-69
2022/05/01 00:16:08;;;;;;;28.40;16.30;;;7.70;95.20;;;;;;4906752;29;20476;-69
2022/05/01 00:18:35;;;;;;;30.00;17.23;;;7.70;95.20;;;;;;4895468;29;20091;-69
2022/05/01 00:21:00;;;;;;;24.98;16.25;;;7.80;95.30;;;;;;4903059;29;20037;-69
2022/05/01 00:23:26;;;;;;;28.35;17.65;;;7.80;95.20;;;;;;4903679;29;20051;-69
2022/05/01 00:25:51;;;;;;;33.00;17.48;;;7.80;95.20;;;;;;4902593;29;20107;-69
2022/05/01 00:28:18;;;;;;;29.10;17.17;;;7.80;95.20;;;;;;4903667;29;20038;-69
2022/05/01 00:30:43;;;;;;;26.90;17.33;;;7.80;95.10;;;;;;4894908;29;20051;-68
2022/05/01 00:38:39;;;;;;;32.70;18.38;;;7.80;94.90;;;;;;4901273;29;20095;-68
2022/05/01 00:41:07;;;;;;;28.65;17.73;;;7.80;95.10;;;;;;4904631;29;20024;-69
2022/05/01 00:43:53;;;;;;;29.58;18.88;;;7.80;95.00;;;;;;4904950;29;20087;-69
2022/05/01 00:46:19;;;;;;;28.35;17.75;;;7.80;95.20;;;;;;4904635;29;20040;-69
2022/05/01 00:48:44;;;;;;;27.88;16.70;;;7.90;95.20;;;;;;4897253;29;20055;-69
2022/05/01 00:51:10;;;;;;;31.05;17.60;;;7.90;95.10;;;;;;4895823;29;20391;-68
2022/05/01 00:53:36;;;;;;;26.38;16.95;;;7.90;95.20;;;;;;4901649;29;20028;-69
2022/05/01 00:56:02;;;;;;;29.50;18.45;;;7.90;95.20;;;;;;4893643;29;20086;-68
2022/05/01 00:58:29;;;;;;;26.80;17.20;;;7.90;95.20;;;;;;4906132;29;20047;-68
2022/05/01 01:00:55;;;;;;;26.20;16.67;;;8.00;95.30;;;;;;4901849;29;20052;-69
2022/05/01 01:03:21;;;;;;;37.25;18.35;;;8.00;95.10;;;;;;4900759;29;20051;-69
2022/05/01 01:05:47;;;;;;;28.50;17.88;;;8.00;95.10;;;;;;4901616;29;20042;-69
2022/05/01 01:08:13;;;;;;;28.08;17.40;;;8.00;95.10;;;;;;4887962;29;20116;-69
2022/05/01 01:10:39;;;;;;;27.67;17.63;;;8.00;95.20;;;;;;4904592;29;20036;-69
2022/05/01 01:13:05;;;;;;;24.60;16.35;;;8.00;95.10;;;;;;4903513;29;20043;-68
2022/05/01 01:15:31;;;;;;;30.27;16.70;;;8.00;95.00;;;;;;4905432;29;20032;-68
2022/05/01 01:17:58;;;;;;;29.52;17.95;;;7.90;94.90;;;;;;4902705;29;20376;-69
2022/05/01 01:20:28;;;;;;;32.03;17.73;;;7.90;95.00;;;;;;4903780;29;20036;-69
2022/05/01 01:22:56;;;;;;;32.33;17.67;;;7.90;95.10;;;;;;4902799;29;20092;-68
2022/05/01 01:25:29;;;;;;;31.52;17.85;;;7.80;95.20;;;;;;4901012;29;20080;-68
2022/05/01 01:27:59;;;;;;;29.38;16.38;;;7.80;95.80;;;;;;4905161;29;20570;-68
2022/05/01 01:33:10;;;;;;;29.83;17.50;;;7.70;95.40;;;;;;4904574;29;20063;-70
2022/05/01 01:35:38;;;;;;;30.30;18.25;;;7.60;95.50;;;;;;4905297;29;20032;-70
2022/05/01 01:38:04;;;;;;;27.10;17.38;;;7.60;95.90;;;;;;4906678;29;20036;-68
2022/05/01 01:40:34;;;;;;;32.03;18.38;;;7.50;95.60;;;;;;4904260;29;20264;-70
2022/05/01 01:43:02;;;;;;;32.05;18.80;;;7.50;95.60;;;;;;4903077;29;20118;-70
2022/05/01 01:45:28;;;;;;;31.27;18.75;;;7.40;95.70;;;;;;4890821;29;20050;-71
2022/05/01 01:47:57;;;;;;;36.13;17.88;;;7.40;95.90;;;;;;4906126;29;20480;-68
2022/05/01 01:50:24;;;;;;;33.20;18.80;;;7.40;95.90;;;;;;4904389;29;20036;-71
2022/05/01 01:52:50;;;;;;;28.00;18.48;;;7.40;95.80;;;;;;4899364;29;20033;-70
2022/05/01 01:55:19;;;;;;;28.38;17.25;;;7.40;95.80;;;;;;4887758;29;20033;-71
2022/05/01 01:57:45;;;;;;;29.10;17.60;;;7.40;95.90;;;;;;4902115;29;20571;-70
2022/05/01 02:00:12;;;;;;;29.25;17.35;;;7.40;96.00;;;;;;4899229;29;20185;-71
2022/05/01 02:02:38;;;;;;;30.02;18.10;;;7.40;96.00;;;;;;4893627;29;20040;-69
2022/05/01 02:05:05;;;;;;;34.80;19.10;;;7.50;96.00;;;;;;4903513;29;20032;-69
2022/05/01 02:07:31;;;;;;;32.95;19.80;;;7.50;96.00;;;;;;4905860;29;20123;-69
2022/05/01 02:09:57;;;;;;;33.58;18.30;;;7.60;96.00;;;;;;4905111;29;20047;-69
2022/05/01 02:12:23;;;;;;;33.63;19.35;;;7.60;96.30;;;;;;4902090;29;20039;-71
2022/05/01 02:14:49;;;;;;;38.30;20.73;;;7.70;96.00;;;;;;4902751;29;20040;-70
2022/05/01 02:17:15;;;;;;;29.30;18.05;;;7.70;95.90;;;;;;4895725;29;20034;-70
2022/05/01 02:19:41;;;;;;;34.13;19.80;;;7.70;95.80;;;;;;4896892;29;20457;-71
2022/05/01 02:22:07;;;;;;;31.83;18.95;;;7.60;95.70;;;;;;4891683;29;20024;-71
2022/05/01 02:24:33;;;;;;;34.65;18.17;;;7.70;95.90;;;;;;4900356;29;20376;-68
2022/05/01 02:27:00;;;;;;;30.85;17.88;;;7.70;95.80;;;;;;4903854;29;20075;-71
2022/05/01 02:29:26;;;;;;;32.53;17.63;;;7.70;95.50;;;;;;4901531;29;20766;-70
2022/05/01 02:31:55;;;;;;;29.75;17.83;;;7.60;95.40;;;;;;4903953;29;20043;-69
2022/05/01 02:34:22;;;;;;;35.83;18.30;;;7.60;95.40;;;;;;4899562;29;20032;-69
2022/05/01 02:36:51;;;;;;;31.50;17.45;;;7.60;95.50;;;;;;4901508;29;20035;-71
2022/05/01 02:39:17;;;;;;;28.42;17.20;;;7.60;95.60;;;;;;4902706;29;20039;-71
2022/05/01 02:41:43;;;;;;;27.17;17.13;;;7.60;95.60;;;;;;4903865;29;20088;-70
2022/05/01 02:44:10;;;;;;;30.95;17.70;;;7.70;95.70;;;;;;4899357;29;20115;-70
2022/05/01 02:46:36;;;;;;;29.73;18.80;;;7.60;95.70;;;;;;4915629;29;20029;-71
2022/05/01 02:49:04;;;;;;;35.53;19.05;;;7.60;95.70;;;;;;4903800;29;20150;-71
2022/05/01 02:51:31;;;;;;;35.95;20.35;;;7.60;95.70;;;;;;4904570;29;20185;-71
2022/05/01 02:54:01;;;;;;;36.17;18.85;;;7.70;95.80;;;;;;4905564;29;20043;-71
2022/05/01 02:56:27;;;;;;;33.47;19.20;;;7.60;95.80;;;;;;4904195;29;20051;-70
2022/05/01 02:58:53;;;;;;;34.88;20.15;;;7.70;96.20;;;;;;4915460;29;20545;-70
2022/05/01 03:01:18;;;;;;;38.38;20.80;;;7.70;96.00;;;;;;4901683;29;20504;-71
2022/05/01 03:03:44;;;;;;;34.85;20.83;;;7.70;96.00;;;;;;4905349;29;20059;-70
2022/05/01 03:06:09;;;;;;;39.20;21.55;;;7.70;96.00;;;;;;4896601;29;20116;-70
2022/05/01 03:08:35;;;;;;;34.83;19.85;;;7.70;96.00;;;;;;4895516;29;20407;-70
2022/05/01 03:11:01;;;;;;;38.42;20.50;;;7.70;96.10;;;;;;4903391;29;20039;-70
2022/05/01 03:13:27;;;;;;;38.13;20.85;;;7.70;96.20;;;;;;4911909;29;20083;-71
2022/05/01 03:15:53;;;;;;;31.05;19.52;;;7.70;96.10;;;;;;4901911;29;20061;-70
2022/05/01 03:23:49;;;;;;;35.47;19.70;;;7.70;95.90;;;;;;4904107;29;20058;-71
2022/05/01 03:26:18;;;;;;;35.08;20.92;;;7.70;96.00;;;;;;4903142;29;20043;-71
2022/05/01 03:28:45;;;;;;;38.45;20.60;;;7.80;95.90;;;;;;4904287;29;20090;-70
2022/05/01 03:31:15;;;;;;;34.72;21.02;;;7.80;95.90;;;;;;4902620;29;20032;-70
2022/05/01 03:33:42;;;;;;;38.95;22.77;;;7.70;95.90;;;;;;4906888;29;20887;-70
2022/05/01 03:36:09;;;;;;;39.05;21.83;;;7.80;96.10;;;;;;4899847;29;20127;-69
2022/05/01 03:38:40;;;;;;;40.78;21.83;;;7.80;96.10;;;;;;4901188;29;20507;-70
2022/05/01 03:41:08;;;;;;;38.95;22.15;;;7.80;96.10;;;;;;4892617;29;20036;-70
2022/05/01 03:43:35;;;;;;;42.78;24.52;;;7.90;96.10;;;;;;4904057;29;20048;-70
2022/05/01 03:46:06;;;;;;;40.05;21.60;;;7.90;96.10;;;;;;4902432;29;20095;-70
2022/05/01 03:48:32;;;;;;;41.78;23.20;;;7.90;96.20;;;;;;4901360;29;20040;-70
2022/05/01 03:51:02;;;;;;;40.92;22.75;;;7.90;96.10;;;;;;4897857;29;20040;-70
2022/05/01 03:53:27;;;;;;;44.58;22.38;;;7.90;96.00;;;;;;4898571;29;20028;-70
2022/05/01 03:55:53;;;;;;;38.53;21.88;;;7.90;95.90;;;;;;4895281;29;20058;-69
2022/05/01 03:58:20;;;;;;;45.00;22.40;;;7.90;95.90;;;;;;4897911;29;20099;-70
2022/05/01 04:00:47;;;;;;;42.45;21.48;;;7.90;95.90;;;;;;4898202;29;20040;-70
2022/05/01 04:03:17;;;;;;;36.33;21.77;;;7.90;95.90;;;;;;4898189;29;20059;-70
2022/05/01 04:05:44;;;;;;;40.67;21.77;;;7.90;95.90;;;;;;4896187;29;20044;-70
2022/05/01 04:08:10;;;;;;;42.75;21.60;;;7.90;96.00;;;;;;4901925;29;20031;-70
2022/05/01 04:10:41;;;;;;;37.53;21.30;;;7.90;96.00;;;;;;4902155;29;20044;-70
2022/05/01 04:13:06;;;;;;;34.47;21.13;;;7.90;96.10;;;;;;4901842;29;20039;-70
2022/05/01 04:15:32;;;;;;;38.97;20.52;;;7.90;96.10;;;;;;4899481;29;20039;-70
2022/05/01 04:17:58;;;;;;;37.83;21.27;;;7.90;96.20;;;;;;4896405;29;20189;-70
2022/05/01 04:20:25;;;;;;;35.45;20.13;;;7.90;96.10;;;;;;4895787;29;20464;-70
2022/05/01 04:22:51;;;;;;;34.65;20.50;;;7.90;96.20;;;;;;4902777;29;20039;-70
2022/05/01 04:25:18;;;;;;;32.92;21.60;;;7.90;96.10;;;;;;4900885;29;20189;-69
2022/05/01 04:27:45;;;;;;;35.63;19.65;;;7.90;96.10;;;;;;4902678;29;20087;-70
2022/05/01 04:30:12;;;;;;;38.25;21.17;;;7.90;96.00;;;;;;4902742;29;20031;-70
2022/05/01 04:32:50;;;;;;;37.17;21.00;;;7.90;96.00;;;;;;4892048;29;20052;-70
2022/05/01 04:35:28;;;;;;;36.13;20.13;;;7.90;96.00;;;;;;4891348;29;20059;-69
2022/05/01 04:38:01;;;;;;;33.75;19.98;;;7.80;95.90;;;;;;4902214;29;20048;-71
2022/05/01 04:40:31;;;;;;;34.30;19.60;;;7.80;95.90;;;;;;4904951;29;20028;-69
2022/05/01 04:43:01;;;;;;;34.55;18.63;;;7.80;96.00;;;;;;4901634;29;20036;-70
2022/05/01 04:45:28;;;;;;;32.55;21.15;;;7.80;96.00;;;;;;4900961;29;20032;-70
2022/05/01 04:47:54;;;;;;;36.50;19.90;;;7.80;96.00;;;;;;4900887;29;20099;-69
2022/05/01 04:50:19;;;;;;;37.50;21.15;;;7.80;96.10;;;;;;4900625;29;20036;-70
2022/05/01 04:52:45;;;;;;;37.83;20.98;;;7.90;96.20;;;;;;4901528;29;20040;-70
2022/05/01 04:55:10;;;;;;;36.58;21.48;;;7.90;96.20;;;;;;4902859;29;20028;-69
2022/05/01 04:57:39;;;;;;;35.80;20.75;;;8.00;96.10;;;;;;4899345;29;20458;-70
2022/05/01 05:00:07;;;;;;;40.33;21.23;;;8.10;96.00;;;;;;4903137;29;20062;-70
2022/05/01 05:02:41;;;;;;;33.88;20.15;;;8.10;95.90;;;;;;4914875;29;20180;-70
2022/05/01 05:05:09;;;;;;;36.38;20.33;;;8.20;95.70;;;;;;4899720;29;20107;-70
2022/05/01 05:07:36;;;;;;;35.33;21.08;;;8.30;95.60;;;;;;4884824;29;20496;-70
2022/05/01 05:10:04;;;;;;;37.90;21.30;;;8.40;95.30;;;;;;4899661;29;20111;-70
2022/05/01 05:12:31;;;;;;;35.88;20.17;;;8.50;95.30;;;;;;4904269;29;20031;-70
2022/05/01 05:14:59;;;;;;;36.40;20.65;;;8.60;95.00;;;;;;4905694;29;20564;-70
2022/05/01 05:17:26;;;;;;;34.60;20.08;;;8.60;94.80;;;;;;4906103;29;20044;-70
2022/05/01 05:19:52;;;;;;;31.92;18.88;;;8.70;94.50;;;;;;4905696;29;20627;-71
2022/05/01 05:22:17;;;;;;;31.48;19.05;;;8.70;94.40;;;;;;4902862;29;20119;-70
2022/05/01 05:24:43;;;;;;;31.15;18.67;;;8.80;94.40;;;;;;4897121;29;20507;-70
2022/05/01 05:27:09;;;;;;;30.10;18.30;;;8.80;94.40;;;;;;4904634;29;20424;-70
2022/05/01 05:29:35;;;;;;;28.77;18.63;;;8.80;94.10;;;;;;4905989;29;20483;-70
2022/05/01 05:32:01;;;;;;;32.63;19.65;;;8.90;94.00;;;;;;4904682;29;20088;-70
2022/05/01 05:34:27;;;;;;;27.23;16.80;;;9.00;93.90;;;;;;4904553;29;20051;-70
2022/05/01 05:36:53;;;;;;;29.23;18.77;;;9.10;93.80;;;;;;4904211;29;20050;-70
2022/05/01 05:39:19;;;;;;;25.85;17.60;;;9.20;93.70;;;;;;4906358;29;20052;-70
2022/05/01 05:41:45;;;;;;;26.70;17.38;;;9.30;93.50;;;;;;4905644;29;20039;-70
2022/05/01 05:44:11;;;;;;;33.72;18.85;;;9.40;93.40;;;;;;4903561;29;20457;-70
2022/05/01 05:46:36;;;;;;;27.52;16.75;;;9.50;93.40;;;;;;4904753;29;20024;-71
2022/05/01 05:49:02;;;;;;;31.08;18.80;;;9.70;92.70;;;;;;4903628;29;20107;-71
2022/05/01 05:51:28;;;;;;;26.50;17.15;;;9.80;92.50;;;;;;4904129;29;20396;-70
2022/05/01 05:53:54;;;;;;;25.10;16.83;;;10.00;92.10;;;;;;4903843;29;20043;-70
2022/05/01 05:56:21;;;;;;;27.25;17.95;;;10.20;91.50;;;;;;4904156;29;20035;-71
2022/05/01 05:58:47;;;;;;;25.45;15.73;;;10.40;91.20;;;;;;4904813;29;20082;-70
2022/05/01 06:01:13;;;;;;;25.88;16.48;;;10.70;90.60;;;;;;4898583;29;20079;-71
2022/05/01 06:03:39;;;;;;;27.08;17.98;;;10.90;90.00;;;;;;4901338;29;20040;-70
2022/05/01 06:06:05;;;;;;;28.48;18.17;;;11.00;88.50;;;;;;4899817;29;20034;-70
2022/05/01 06:08:31;;;;;;;26.38;17.33;;;11.20;87.80;;;;;;4919457;29;20039;-70
2022/05/01 06:10:57;;;;;;;26.80;17.70;;;11.30;88.30;;;;;;4901339;29;20028;-71
2022/05/01 06:13:22;;;;;;;27.58;16.67;;;11.40;86.70;;;;;;4900203;29;20079;-70
2022/05/01 06:15:48;;;;;;;25.73;16.98;;;11.60;86.50;;;;;;4897088;29;20451;-71
2022/05/01 06:18:14;;;;;;;25.20;16.98;;;11.80;86.40;;;;;;4897685;29;20151;-71
2022/05/01 06:20:40;;;;;;;24.05;16.35;;;11.90;85.30;;;;;;4900915;29;20028;-71
2022/05/01 06:23:06;;;;;;;27.05;16.88;;;12.10;85.90;;;;;;4898417;29;20039;-71
2022/05/01 06:25:32;;;;;;;32.22;16.83;;;12.10;84.50;;;;;;4873164;29;20051;-71
2022/05/01 06:27:58;;;;;;;24.42;16.45;;;12.40;85.10;;;;;;4887740;29;20440;-71
2022/05/01 06:30:23;;;;;;;23.45;15.45;;;12.70;83.30;;;;;;4894805;29;20032;-71
2022/05/01 06:32:49;;;;;;;24.08;14.82;;;13.10;82.60;;;;;;4898022;29;20289;-71
2022/05/01 06:35:17;;;;;;;24.83;15.63;;;13.40;78.50;;;;;;4893382;29;20110;-71
2022/05/01 06:37:44;;;;;;;21.27;15.18;;;13.70;78.40;;;;;;4894409;29;20582;-71
2022/05/01 06:40:09;;;;;;;19.60;14.50;;;13.80;77.00;;;;;;4892620;29;20037;-70
2022/05/01 06:42:35;;;;;;;21.27;13.18;;;13.90;75.90;;;;;;4897323;29;20534;-70
2022/05/01 06:45:02;;;;;;;21.35;13.82;;;14.00;77.20;;;;;;4891850;29;20032;-70
2022/05/01 06:47:28;;;;;;;18.05;13.30;;;14.10;74.50;;;;;;4895236;29;20547;-71
2022/05/01 06:49:53;;;;;;;18.88;13.85;;;14.00;72.40;;;;;;4892860;29;20067;-70
2022/05/01 06:52:23;;;;;;;21.35;14.23;;;13.80;74.90;;;;;;4894930;29;20036;-70
2022/05/01 06:54:52;;;;;;;18.90;12.98;;;13.80;78.10;;;;;;4884804;29;20088;-70
2022/05/01 06:57:18;;;;;;;19.38;13.30;;;13.60;74.90;;;;;;4884372;29;20502;-70
2022/05/01 06:59:44;;;;;;;18.92;13.45;;;13.40;75.70;;;;;;4879981;29;20084;-70
2022/05/01 07:02:10;;;;;;;19.83;12.95;;;13.50;78.30;;;;;;4875300;29;20235;-70
2022/05/01 07:04:35;;;;;;;16.10;12.30;;;13.60;75.90;;;;;;4883523;29;20066;-70
2022/05/01 07:07:02;;;;;;;17.67;12.80;;;13.60;75.40;;;;;;4889091;29;20056;-70
2022/05/01 07:09:28;;;;;;;19.48;13.27;;;13.60;75.20;;;;;;4893291;29;20485;-70
2022/05/01 07:11:54;;;;;;;16.85;12.63;;;13.70;76.10;;;;;;4895954;29;20041;-70
2022/05/01 07:14:20;;;;;;;18.80;12.65;;;13.60;75.50;;;;;;4896136;29;20457;-70
2022/05/01 07:16:47;;;;;;;19.30;12.93;;;13.70;76.80;;;;;;4893091;29;20059;-70
2022/05/01 07:19:14;;;;;;;16.63;12.10;;;14.00;76.60;;;;;;4896544;29;20118;-71
2022/05/01 07:21:40;;;;;;;18.63;12.52;;;14.00;75.20;;;;;;4894411;29;20130;-70
2022/05/01 07:24:06;;;;;;;16.20;12.85;;;14.30;75.30;;;;;;4887076;29;20495;-70
2022/05/01 07:26:35;;;;;;;14.32;12.07;;;14.50;72.90;;;;;;4887460;29;20036;-71
2022/05/01 07:29:02;;;;;;;20.15;11.10;;;14.50;71.80;;;;;;4883409;29;20054;-71
2022/05/01 07:31:27;;;;;;;14.95;10.57;;;14.40;74.20;;;;;;4884603;29;20028;-70
2022/05/01 07:33:53;;;;;;;17.00;11.05;;;14.70;73.40;;;;;;4888341;29;20084;-71
2022/05/01 07:36:19;;;;;;;16.10;10.50;;;14.70;73.90;;;;;;4892682;29;20471;-71
2022/05/01 07:38:49;;;;;;;14.70;11.00;;;14.80;72.20;;;;;;4889833;29;20950;-71
2022/05/01 07:41:19;;;;;;;17.95;11.65;;;15.20;71.80;;;;;;4894152;29;20043;-71
2022/05/01 07:43:46;;;;;;;13.95;10.55;;;15.30;74.10;;;;;;4886380;29;20034;-71
2022/05/01 07:46:12;;;;;;;14.85;11.45;;;15.40;67.70;;;;;;4888121;29;20032;-70
2022/05/01 07:48:38;;;;;;;16.13;10.52;;;15.50;68.80;;;;;;4884832;29;20171;-71
2022/05/01 07:51:04;;;;;;;16.20;10.85;;;15.70;68.60;;;;;;4888944;29;20408;-71
2022/05/01 07:53:29;;;;;;;15.43;10.55;;;15.80;67.00;;;;;;4886899;29;20153;-71
2022/05/01 07:55:58;;;;;;;16.67;10.65;;;16.50;65.30;;;;;;4891050;29;20179;-71
2022/05/01 07:58:24;;;;;;;14.85;9.02;;;18.00;64.00;;;;;;4893407;29;20076;-71
2022/05/01 08:00:50;;;;;;;14.88;8.95;;;19.60;58.10;;;;;;4893374;29;20040;-71
2022/05/01 08:06:00;;;;;;;12.13;8.93;;;21.20;52.50;;;;;;4895365;29;21800;-71
2022/05/01 08:08:26;;;;;;;15.80;8.45;;;21.50;50.60;;;;;;4894912;29;20044;-71
2022/05/01 08:10:52;;;;;;;14.25;8.55;;;21.40;47.50;;;;;;4892081;29;20491;-71
2022/05/01 08:13:17;;;;;;;11.05;8.45;;;21.50;49.40;;;;;;4894475;29;20036;-71
2022/05/01 08:15:43;;;;;;;13.27;8.95;;;21.50;49.40;;;;;;4886690;29;20040;-71
2022/05/01 08:21:07;;;;;;;10.45;6.90;;;21.90;47.90;;;;;;4889088;29;20035;-72
2022/05/01 08:23:38;;;;;;;8.25;6.13;;;21.10;46.70;;;;;;4883408;29;20242;-71
2022/05/01 08:26:06;;;;;;;9.40;6.20;;;20.40;48.60;;;;;;4883272;29;20965;-71
2022/05/01 08:28:37;;;;;;;10.63;7.47;;;20.30;48.10;;;;;;4908959;29;20207;-71
2022/05/01 08:31:03;;;;;;;11.45;7.20;;;20.70;51.20;;;;;;4888182;29;20431;-71
2022/05/01 08:33:29;;;;;;;10.75;7.30;;;20.20;48.20;;;;;;4884708;29;20036;-71
2022/05/01 08:35:55;;;;;;;9.82;6.50;;;20.10;47.70;;;;;;4881373;29;20047;-71
2022/05/01 08:38:21;;;;;;;8.80;6.95;;;19.60;50.90;;;;;;4878386;29;20040;-72
2022/05/01 08:40:48;;;;;;;9.10;6.65;;;19.40;49.50;;;;;;4884019;29;20028;-71
2022/05/01 08:43:22;;;;;;;8.27;6.68;;;19.20;51.80;;;;;;4885536;29;20776;-71
2022/05/01 08:46:06;;;;;;;8.27;6.32;;;19.00;51.30;;;;;;4883910;29;20051;-72
2022/05/01 08:48:37;;;;;;;8.45;5.28;;;18.30;51.30;;;;;;4882686;29;20349;-70
2022/05/01 08:51:04;;;;;;;6.38;5.40;;;18.20;50.60;;;;;;4898914;29;20028;-71
2022/05/01 08:53:31;;;;;;;7.28;5.43;;;18.00;57.20;;;;;;4881617;29;20080;-71
2022/05/01 08:55:58;;;;;;;5.95;5.03;;;18.00;57.50;;;;;;4884927;29;20064;-71
2022/05/01 08:58:26;;;;;;;6.18;5.32;;;17.90;57.80;;;;;;4891545;29;20080;-71
2022/05/01 09:00:53;;;;;;;9.57;5.50;;;18.00;54.80;;;;;;4890081;29;20057;-71
2022/05/01 09:03:18;;;;;;;8.38;5.03;;;17.90;53.50;;;;;;4893965;29;20132;-70
2022/05/01 09:05:44;;;;;;;7.18;4.80;;;18.10;53.20;;;;;;4892335;29;20165;-70
2022/05/01 09:08:11;;;;;;;6.32;4.70;;;18.50;54.80;;;;;;4899431;29;20031;-70
2022/05/01 09:10:39;;;;;;;6.75;5.85;;;18.80;52.10;;;;;;4901716;29;20055;-70
2022/05/01 09:13:06;;;;;;;7.15;4.75;;;18.60;50.70;;;;;;4901162;29;20060;-70
2022/05/01 09:15:37;;;;;;;7.50;5.60;;;18.50;50.70;;;;;;4897174;29;20688;-72
2022/05/01 09:18:11;;;;;;;9.48;5.25;;;18.70;49.00;;;;;;4893443;29;20552;-72
2022/05/01 09:20:57;;;;;;;6.50;4.70;;;18.60;54.20;;;;;;4898768;29;20070;-71
2022/05/01 09:23:43;;;;;;;8.07;4.72;;;18.80;52.00;;;;;;4893761;29;20422;-70
2022/05/01 09:26:12;;;;;;;6.13;4.88;;;19.30;52.30;;;;;;4894884;29;20307;-72
2022/05/01 09:28:50;;;;;;;8.40;4.75;;;19.90;46.90;;;;;;4901279;29;20101;-72
2022/05/01 09:31:18;;;;;;;9.23;4.53;;;20.70;48.70;;;;;;4893503;29;20028;-72
2022/05/01 09:33:44;;;;;;;6.78;4.63;;;21.00;47.50;;;;;;4893871;29;20036;-71
2022/05/01 09:36:34;;;;;;;7.22;4.50;;;20.80;43.40;;;;;;4895781;29;20039;-70
2022/05/01 09:39:05;;;;;;;5.90;5.25;;;20.50;43.30;;;;;;4893177;29;20104;-71
2022/05/01 09:41:30;;;;;;;5.15;4.25;;;19.90;47.90;;;;;;4895702;29;20391;-72
2022/05/01 09:43:56;;;;;;;7.10;4.35;;;19.60;48.60;;;;;;4895136;29;20042;-72
2022/05/01 09:46:27;;;;;;;5.15;4.65;;;18.90;47.00;;;;;;4900649;29;20451;-72
2022/05/01 09:49:00;;;;;;;8.93;4.57;;;18.50;47.70;;;;;;4894293;29;20640;-72
2022/05/01 09:51:27;;;;;;;8.10;5.30;;;18.60;52.60;;;;;;4896974;29;20567;-72
2022/05/01 09:53:53;;;;;;;7.70;4.45;;;18.50;49.60;;;;;;4897355;29;20032;-72
2022/05/01 09:56:19;;;;;;;5.90;4.82;;;18.60;51.00;;;;;;4902891;29;20042;-72
2022/05/01 09:58:45;;;;;;;6.55;4.70;;;19.30;51.80;;;;;;4903763;29;20428;-72
2022/05/01 10:01:16;;;;;;;6.05;4.80;;;20.10;47.50;;;;;;4902676;29;20048;-72
2022/05/01 10:03:46;;;;;;;8.65;4.70;;;20.50;49.40;;;;;;4896342;29;20079;-72
2022/05/01 10:06:14;;;;;;;5.47;4.57;;;21.00;49.60;;;;;;4902462;29;20232;-72
2022/05/01 10:08:42;;;;;;;7.93;5.65;;;21.20;46.70;;;;;;4900785;29;20058;-72
2022/05/01 10:11:08;;;;;;;5.50;4.28;;;20.60;43.40;;;;;;4896248;29;20498;-72
2022/05/01 10:13:35;;;;;;;5.57;5.03;;;20.60;48.20;;;;;;4561310;28;10000504;-72
2022/05/01 10:16:06;;;;;;;5.93;5.05;;;20.60;44.30;;;;;;4901576;29;20028;-71
2022/05/01 10:18:32;;;;;;;9.10;5.35;;;20.50;47.00;;;;;;4899803;29;20040;-72
2022/05/01 10:20:58;;;;;;;6.75;4.70;;;20.30;47.90;;;;;;4902646;29;20039;-71
2022/05/01 10:23:25;;;;;;;6.53;5.40;;;20.20;46.00;;;;;;4899002;29;20048;-71
2022/05/01 10:26:16;;;;;;;7.07;4.85;;;19.90;45.00;;;;;;4886344;29;20120;-70
2022/05/01 10:28:51;;;;;;;6.63;5.03;;;19.70;46.90;;;;;;4897203;29;20076;-71
2022/05/01 10:35:04;;;;;;;6.57;5.25;;;19.30;49.00;;;;;;4901291;29;20047;-71
2022/05/01 10:37:41;;;;;;;8.90;4.70;;;19.50;49.40;;;;;;4901483;29;20040;-71
2022/05/01 10:40:07;;;;;;;8.23;5.25;;;19.40;47.30;;;;;;4900849;29;20051;-70
2022/05/01 10:42:33;;;;;;;5.43;4.28;;;19.50;47.20;;;;;;4904832;29;20384;-70
2022/05/01 10:45:00;;;;;;;7.95;5.68;;;19.40;49.60;;;;;;4903275;29;20087;-70
2022/05/01 10:47:37;;;;;;;8.85;5.95;;;19.60;48.90;;;;;;4902445;29;20047;-70
2022/05/01 10:50:08;;;;;;;7.72;5.82;;;19.60;45.30;;;;;;4898571;29;20064;-70
2022/05/01 10:52:34;;;;;;;13.25;6.28;;;19.60;49.30;;;;;;4898794;29;20043;-70
2022/05/01 10:55:05;;;;;;;10.05;5.75;;;19.70;45.80;;;;;;4902451;29;20070;-70
2022/05/01 10:57:31;;;;;;;6.30;5.15;;;20.10;46.60;;;;;;4901845;29;20043;-70
2022/05/01 11:00:10;;;;;;;7.30;5.03;;;20.30;44.20;;;;;;4902893;29;20063;-70
2022/05/01 11:02:48;;;;;;;8.60;4.80;;;20.50;47.30;;;;;;4900628;29;20044;-71
2022/05/01 11:05:42;;;;;;;7.20;5.95;;;21.50;48.30;;;;;;4902404;29;20103;-70
2022/05/01 11:08:15;;;;;;;9.20;5.75;;;22.30;43.80;;;;;;4902953;29;20090;-71
2022/05/01 11:10:42;;;;;;;9.73;5.32;;;22.20;38.80;;;;;;4898543;29;20032;-71
2022/05/01 11:13:13;;;;;;;6.78;4.60;;;22.40;40.40;;;;;;4898108;29;20491;-70
2022/05/01 11:15:49;;;;;;;7.43;5.82;;;21.80;40.40;;;;;;4899356;29;20087;-70
2022/05/01 11:18:26;;;;;;;6.65;5.00;;;21.80;41.40;;;;;;4898258;29;20036;-71
2022/05/01 11:20:52;;;;;;;8.68;5.22;;;21.30;40.80;;;;;;4896240;29;20475;-74
2022/05/01 11:23:34;;;;;;;7.82;5.15;;;21.00;43.10;;;;;;4911269;29;20107;-70
2022/05/01 11:26:11;;;;;;;8.30;5.63;;;20.90;42.20;;;;;;4891912;29;20399;-70
2022/05/01 11:28:56;;;;;;;9.40;4.65;;;21.00;39.70;;;;;;4897864;29;20044;-69
2022/05/01 11:31:48;;;;;;;7.53;5.18;;;20.70;47.20;;;;;;4902825;29;20040;-70
2022/05/01 11:34:20;;;;;;;6.57;5.20;;;21.20;43.60;;;;;;4894983;29;20119;-70
2022/05/01 11:37:01;;;;;;;6.82;5.03;;;21.10;44.40;;;;;;4557793;29;10000389;-69
2022/05/01 11:39:45;;;;;;;;;;;21.00;41.30;;;;;;4902184;29;20524;-69
2022/05/01 11:42:26;;;;;;;9.13;5.20;;;20.60;44.10;;;;;;4901603;29;19915;-69
2022/05/01 11:44:59;;;;;;;10.80;6.25;;;20.20;45.50;;;;;;4900262;29;20107;-70
2022/05/01 11:47:27;;;;;;;7.93;6.13;;;19.90;44.40;;;;;;4903434;29;20035;-69
2022/05/01 11:49:52;;;;;;;9.60;5.82;;;19.70;47.80;;;;;;4905800;29;20044;-69
2022/05/01 11:52:19;;;;;;;13.90;6.63;;;19.30;48.20;;;;;;4917419;29;20340;-69
2022/05/01 11:54:56;;;;;;;6.40;5.20;;;19.40;48.30;;;;;;4903675;29;20065;-69
2022/05/01 12:03:07;;;;;;;9.60;5.82;;;20.00;47.30;;;;;;4900916;29;20536;-70
2022/05/01 12:05:47;;;;;;;9.90;5.28;;;19.70;43.60;;;;;;4906022;29;20103;-69
2022/05/01 12:08:14;;;;;;;10.70;5.93;;;20.00;45.70;;;;;;4896253;29;20066;-69
2022/05/01 12:10:44;;;;;;;6.57;4.72;;;19.40;45.80;;;;;;4878522;29;20158;-69
2022/05/01 12:13:17;;;;;;;5.85;4.80;;;19.70;48.80;;;;;;4886169;29;20404;-70
2022/05/01 12:15:43;;;;;;;8.57;5.88;;;19.60;48.60;;;;;;4892657;29;20063;-69
2022/05/01 12:18:09;;;;;;;6.97;5.13;;;19.50;48.30;;;;;;4892879;29;20044;-70
2022/05/01 12:20:35;;;;;;;12.77;4.90;;;19.40;45.70;;;;;;4893474;29;20443;-70
2022/05/01 12:23:00;;;;;;;8.05;5.13;;;19.40;45.40;;;;;;4897514;29;20028;-70
2022/05/01 12:25:26;;;;;;;8.95;5.25;;;19.20;45.80;;;;;;4895925;29;20464;-70
2022/05/01 12:27:52;;;;;;;7.65;5.15;;;19.20;47.50;;;;;;4895598;29;20048;-70
2022/05/01 12:30:22;;;;;;;8.05;5.03;;;19.30;49.00;;;;;;4888660;29;21237;-70
2022/05/01 12:32:54;;;;;;;6.80;5.00;;;19.00;46.40;;;;;;4887412;29;20032;-70
2022/05/01 12:35:21;;;;;;;6.90;5.15;;;18.80;46.80;;;;;;4894780;29;20035;-70
2022/05/01 12:37:49;;;;;;;6.47;5.10;;;18.90;49.60;;;;;;4893047;29;20075;-71
2022/05/01 12:43:50;;;;;;;5.75;5.10;;;18.90;51.90;;;;;;4888478;29;20151;-70
2022/05/01 12:45:53;;;;;;;8.10;5.53;;;18.80;50.30;;;;;;4898208;29;20088;-70
2022/05/01 12:48:21;;;;;;;11.75;9.05;;;19.00;51.20;;;;;;4896257;29;20032;-70
2022/05/01 12:50:53;;;;;;;9.10;6.32;;;18.90;52.10;;;;;;4894383;29;20032;-70
2022/05/01 12:53:27;;;;;;;23.10;20.73;;;19.10;53.30;;;;;;4893459;29;20071;-70
2022/05/01 12:55:54;;;;;;;11.20;8.88;;;19.00;51.70;;;;;;4892916;29;20032;-70
2022/05/01 12:58:28;;;;;;;7.00;4.85;;;18.90;55.50;;;;;;4884136;29;20076;-71
2022/05/01 13:00:54;;;;;;;9.77;5.60;;;18.70;51.60;;;;;;4898327;29;20506;-70
2022/05/01 13:03:37;;;;;;;8.10;5.10;;;19.00;56.00;;;;;;4895950;29;20048;-70
2022/05/01 13:06:14;;;;;;;8.35;5.50;;;19.20;55.30;;;;;;4888416;29;20086;-70
2022/05/01 13:08:45;;;;;;;7.22;5.03;;;19.30;49.70;;;;;;4897862;29;20040;-70
2022/05/01 13:11:21;;;;;;;7.03;4.82;;;19.30;50.60;;;;;;4890928;29;20387;-71
2022/05/01 13:14:08;;;;;;;6.95;4.25;;;19.10;53.40;;;;;;4892768;29;20051;-70
2022/05/01 13:16:33;;;;;;;9.48;5.50;;;19.40;52.50;;;;;;4900931;29;20031;-70